sensor_id;sensor_type;location;lat;lon;timestamp;pressure;altitude;pressure_sealevel;temperature;humidity
35224;BME280;21367;51.930;8.112;2023-04-24T00:04:43;99463.91;;;11.32;79.83
35224;BME280;21367;51.930;8.112;2023-04-24T00:09:52;99468.34;;;11.41;78.94
35224;BME280;21367;51.930;8.112;2023-04-24T00:14:56;99470.19;;;11.50;79.23
35224;BME280;21367;51.930;8.112;2023-04-24T00:20:00;99464.06;;;11.42;80.33
35224;BME280;21367;51.930;8.112;2023-04-24T00:25:08;99465.91;;;11.47;79.95
35224;BME280;21367;51.930;8.112;2023-04-24T00:30:12;99446.22;;;11.51;79.40
35224;BME280;21367;51.930;8.112;2023-04-24T00:35:16;99446.69;;;11.28;79.27
35224;BME280;21367;51.930;8.112;2023-04-24T00:40:25;99448.16;;;11.16;78.99
35224;BME280;21367;51.930;8.112;2023-04-24T00:45:30;99441.59;;;11.31;78.99
35224;BME280;21367;51.930;8.112;2023-04-24T00:50:35;99437.22;;;11.27;78.86
35224;BME280;21367;51.930;8.112;2023-04-24T00:55:42;99427.94;;;11.37;78.52
35224;BME280;21367;51.930;8.112;2023-04-24T01:00:52;99421.88;;;11.32;78.29
35224;BME280;21367;51.930;8.112;2023-04-24T01:05:58;99426.06;;;11.27;79.70
35224;BME280;21367;51.930;8.112;2023-04-24T01:11:06;99432.84;;;11.23;79.83
35224;BME280;21367;51.930;8.112;2023-04-24T01:16:10;99435.66;;;11.35;80.16
35224;BME280;21367;51.930;8.112;2023-04-24T01:21:15;99432.28;;;11.40;80.13
35224;BME280;21367;51.930;8.112;2023-04-24T01:26:23;99436.09;;;11.13;81.50
35224;BME280;21367;51.930;8.112;2023-04-24T01:31:28;99437.97;;;11.22;81.36
35224;BME280;21367;51.930;8.112;2023-04-24T01:36:33;99438.31;;;10.95;81.80
35224;BME280;21367;51.930;8.112;2023-04-24T01:41:42;99429.44;;;10.79;81.18
35224;BME280;21367;51.930;8.112;2023-04-24T01:46:46;99425.81;;;10.71;81.64
35224;BME280;21367;51.930;8.112;2023-04-24T01:51:51;99427.66;;;10.76;80.54
35224;BME280;21367;51.930;8.112;2023-04-24T01:56:57;99420.63;;;10.68;80.62
35224;BME280;21367;51.930;8.112;2023-04-24T02:02:01;99435.84;;;10.58;80.70
35224;BME280;21367;51.930;8.112;2023-04-24T02:07:05;99438.91;;;10.42;81.41
35224;BME280;21367;51.930;8.112;2023-04-24T02:12:12;99430.75;;;10.24;82.71
35224;BME280;21367;51.930;8.112;2023-04-24T02:17:16;99435.91;;;10.24;82.18
35224;BME280;21367;51.930;8.112;2023-04-24T02:22:20;99432.78;;;10.35;82.29
35224;BME280;21367;51.930;8.112;2023-04-24T02:27:26;99427.84;;;10.08;83.73
35224;BME280;21367;51.930;8.112;2023-04-24T02:32:31;99431.56;;;10.21;83.26
35224;BME280;21367;51.930;8.112;2023-04-24T02:37:36;99433.97;;;10.13;84.14
35224;BME280;21367;51.930;8.112;2023-04-24T02:42:43;99431.25;;;10.07;84.35
35224;BME280;21367;51.930;8.112;2023-04-24T02:47:46;99427.44;;;10.26;82.85
35224;BME280;21367;51.930;8.112;2023-04-24T02:52:51;99439.22;;;10.19;83.00
35224;BME280;21367;51.930;8.112;2023-04-24T02:57:57;99444.84;;;10.03;82.43
35224;BME280;21367;51.930;8.112;2023-04-24T03:03:01;99450.00;;;10.05;81.31
35224;BME280;21367;51.930;8.112;2023-04-24T03:08:06;99440.38;;;9.96;81.29
35224;BME280;21367;51.930;8.112;2023-04-24T03:13:15;99448.81;;;9.90;81.46
35224;BME280;21367;51.930;8.112;2023-04-24T03:18:19;99436.31;;;10.04;80.72
35224;BME280;21367;51.930;8.112;2023-04-24T03:23:25;99442.28;;;10.03;81.10
35224;BME280;21367;51.930;8.112;2023-04-24T03:28:32;99453.72;;;9.81;82.23
35224;BME280;21367;51.930;8.112;2023-04-24T03:33:38;99446.09;;;9.84;82.29
35224;BME280;21367;51.930;8.112;2023-04-24T03:38:42;99437.75;;;9.93;82.42
35224;BME280;21367;51.930;8.112;2023-04-24T03:44:11;99442.59;;;9.47;83.17
35224;BME280;21367;51.930;8.112;2023-04-24T03:49:16;99421.31;;;9.86;81.90
35224;BME280;21367;51.930;8.112;2023-04-24T03:54:22;99429.41;;;9.67;82.61
35224;BME280;21367;51.930;8.112;2023-04-24T03:59:30;99444.88;;;9.37;83.60
35224;BME280;21367;51.930;8.112;2023-04-24T04:04:50;99452.63;;;9.38;83.59
35224;BME280;21367;51.930;8.112;2023-04-24T04:09:54;99481.09;;;9.17;86.00
35224;BME280;21367;51.930;8.112;2023-04-24T04:15:01;99485.84;;;9.03;88.51
35224;BME280;21367;51.930;8.112;2023-04-24T04:20:06;99491.94;;;9.07;88.77
35224;BME280;21367;51.930;8.112;2023-04-24T04:25:13;99494.53;;;9.09;89.12
35224;BME280;21367;51.930;8.112;2023-04-24T04:30:23;99498.34;;;9.23;89.30
35224;BME280;21367;51.930;8.112;2023-04-24T04:35:32;99489.81;;;9.24;89.34
35224;BME280;21367;51.930;8.112;2023-04-24T04:40:37;99492.19;;;9.16;89.36
35224;BME280;21367;51.930;8.112;2023-04-24T04:45:44;99494.94;;;9.24;89.99
35224;BME280;21367;51.930;8.112;2023-04-24T04:50:58;99495.41;;;9.09;90.21
35224;BME280;21367;51.930;8.112;2023-04-24T04:56:03;99499.13;;;9.20;90.76
35224;BME280;21367;51.930;8.112;2023-04-24T05:01:22;99500.09;;;9.56;88.80
35224;BME280;21367;51.930;8.112;2023-04-24T05:06:29;99493.75;;;9.43;89.19
35224;BME280;21367;51.930;8.112;2023-04-24T05:11:33;99496.72;;;9.57;88.80
35224;BME280;21367;51.930;8.112;2023-04-24T05:16:40;99491.66;;;9.60;89.14
35224;BME280;21367;51.930;8.112;2023-04-24T05:21:45;99496.03;;;9.64;89.17
35224;BME280;21367;51.930;8.112;2023-04-24T05:26:49;99489.19;;;9.63;87.99
35224;BME280;21367;51.930;8.112;2023-04-24T05:32:01;99500.31;;;9.65;89.21
35224;BME280;21367;51.930;8.112;2023-04-24T05:37:05;99493.03;;;9.80;88.29
35224;BME280;21367;51.930;8.112;2023-04-24T05:42:10;99502.31;;;9.75;88.14
35224;BME280;21367;51.930;8.112;2023-04-24T05:47:20;99503.66;;;9.94;87.07
35224;BME280;21367;51.930;8.112;2023-04-24T05:52:29;99509.44;;;9.87;86.75
35224;BME280;21367;51.930;8.112;2023-04-24T05:57:36;99511.31;;;9.92;86.07
35224;BME280;21367;51.930;8.112;2023-04-24T06:02:44;99508.56;;;9.85;86.61
35224;BME280;21367;51.930;8.112;2023-04-24T06:07:48;99514.41;;;9.79;86.59
35224;BME280;21367;51.930;8.112;2023-04-24T06:12:52;99508.25;;;9.72;86.65
35224;BME280;21367;51.930;8.112;2023-04-24T06:17:59;99510.75;;;10.04;86.07
35224;BME280;21367;51.930;8.112;2023-04-24T06:23:03;99510.44;;;9.92;86.49
35224;BME280;21367;51.930;8.112;2023-04-24T06:28:08;99516.19;;;9.82;87.16
35224;BME280;21367;51.930;8.112;2023-04-24T06:33:15;99520.53;;;9.84;85.82
35224;BME280;21367;51.930;8.112;2023-04-24T06:38:19;99513.78;;;9.89;85.78
35224;BME280;21367;51.930;8.112;2023-04-24T06:43:26;99517.44;;;9.99;84.76
35224;BME280;21367;51.930;8.112;2023-04-24T06:48:33;99509.19;;;9.76;85.26
35224;BME280;21367;51.930;8.112;2023-04-24T06:53:36;99520.06;;;10.01;83.81
35224;BME280;21367;51.930;8.112;2023-04-24T06:58:40;99519.88;;;9.93;84.28
35224;BME280;21367;51.930;8.112;2023-04-24T07:03:46;99525.00;;;9.93;83.16
35224;BME280;21367;51.930;8.112;2023-04-24T07:08:50;99520.78;;;10.28;82.47
35224;BME280;21367;51.930;8.112;2023-04-24T07:13:54;99532.03;;;10.33;82.20
35224;BME280;21367;51.930;8.112;2023-04-24T07:19:00;99533.47;;;10.24;82.37
35224;BME280;21367;51.930;8.112;2023-04-24T07:24:04;99537.28;;;10.05;82.57
35224;BME280;21367;51.930;8.112;2023-04-24T07:29:10;99544.88;;;10.00;82.73
35224;BME280;21367;51.930;8.112;2023-04-24T07:34:16;99553.06;;;9.87;83.68
35224;BME280;21367;51.930;8.112;2023-04-24T07:39:20;99546.44;;;9.95;84.12
35224;BME280;21367;51.930;8.112;2023-04-24T07:44:24;99539.94;;;10.41;82.92
35224;BME280;21367;51.930;8.112;2023-04-24T07:49:30;99547.34;;;10.29;83.26
35224;BME280;21367;51.930;8.112;2023-04-24T07:54:35;99549.63;;;10.19;83.29
35224;BME280;21367;51.930;8.112;2023-04-24T07:59:39;99554.78;;;10.19;83.54
35224;BME280;21367;51.930;8.112;2023-04-24T08:04:45;99554.63;;;10.15;84.18
35224;BME280;21367;51.930;8.112;2023-04-24T08:09:49;99557.59;;;10.29;82.36
35224;BME280;21367;51.930;8.112;2023-04-24T08:14:53;99567.25;;;10.37;80.97
35224;BME280;21367;51.930;8.112;2023-04-24T08:19:59;99565.00;;;10.53;81.43
35224;BME280;21367;51.930;8.112;2023-04-24T08:25:04;99560.75;;;10.18;82.49
35224;BME280;21367;51.930;8.112;2023-04-24T08:30:09;99571.53;;;10.38;81.21
35224;BME280;21367;51.930;8.112;2023-04-24T08:35:15;99580.47;;;10.21;82.31
35224;BME280;21367;51.930;8.112;2023-04-24T08:40:23;99579.19;;;10.04;83.63
35224;BME280;21367;51.930;8.112;2023-04-24T08:45:32;99590.47;;;10.10;81.83
35224;BME280;21367;51.930;8.112;2023-04-24T08:50:40;99581.25;;;10.52;81.23
35224;BME280;21367;51.930;8.112;2023-04-24T08:55:47;99574.81;;;11.07;79.06
35224;BME280;21367;51.930;8.112;2023-04-24T09:00:54;99571.44;;;10.72;79.21
35224;BME280;21367;51.930;8.112;2023-04-24T09:06:01;99578.44;;;10.77;78.84
35224;BME280;21367;51.930;8.112;2023-04-24T09:11:06;99593.41;;;10.57;79.19
35224;BME280;21367;51.930;8.112;2023-04-24T09:16:10;99591.09;;;10.33;81.55
35224;BME280;21367;51.930;8.112;2023-04-24T09:21:20;99603.16;;;9.72;84.01
35224;BME280;21367;51.930;8.112;2023-04-24T09:26:24;99605.13;;;10.14;85.04
35224;BME280;21367;51.930;8.112;2023-04-24T09:31:29;99603.19;;;9.74;86.12
35224;BME280;21367;51.930;8.112;2023-04-24T09:36:37;99611.47;;;9.95;87.51
35224;BME280;21367;51.930;8.112;2023-04-24T09:41:44;99612.91;;;9.84;87.89
35224;BME280;21367;51.930;8.112;2023-04-24T09:46:50;99615.50;;;9.86;89.27
35224;BME280;21367;51.930;8.112;2023-04-24T09:52:06;99613.41;;;10.36;85.29
35224;BME280;21367;51.930;8.112;2023-04-24T09:57:11;99624.41;;;9.99;84.38
35224;BME280;21367;51.930;8.112;2023-04-24T10:02:18;99631.19;;;9.36;87.09
35224;BME280;21367;51.930;8.112;2023-04-24T10:07:25;99633.78;;;9.98;86.10
35224;BME280;21367;51.930;8.112;2023-04-24T10:12:29;99649.44;;;10.07;85.86
35224;BME280;21367;51.930;8.112;2023-04-24T10:17:34;99657.34;;;9.53;91.08
35224;BME280;21367;51.930;8.112;2023-04-24T10:22:41;99660.31;;;9.38;94.83
35224;BME280;21367;51.930;8.112;2023-04-24T10:27:47;99675.59;;;9.07;97.90
35224;BME280;21367;51.930;8.112;2023-04-24T10:32:52;99677.41;;;8.84;100.00
35224;BME280;21367;51.930;8.112;2023-04-24T10:38:02;99686.59;;;9.02;100.00
35224;BME280;21367;51.930;8.112;2023-04-24T10:43:08;99693.69;;;9.40;99.59
35224;BME280;21367;51.930;8.112;2023-04-24T10:48:15;99704.31;;;9.52;100.00
35224;BME280;21367;51.930;8.112;2023-04-24T10:53:22;99717.47;;;9.34;100.00
35224;BME280;21367;51.930;8.112;2023-04-24T10:58:36;99722.63;;;9.36;100.00
35224;BME280;21367;51.930;8.112;2023-04-24T11:03:50;99731.75;;;9.83;100.00
35224;BME280;21367;51.930;8.112;2023-04-24T11:09:02;99732.94;;;9.94;99.38
35224;BME280;21367;51.930;8.112;2023-04-24T11:14:07;99733.63;;;9.89;100.00
35224;BME280;21367;51.930;8.112;2023-04-24T11:19:19;99744.75;;;9.89;100.00
35224;BME280;21367;51.930;8.112;2023-04-24T11:24:29;99747.97;;;9.25;100.00
35224;BME280;21367;51.930;8.112;2023-04-24T11:29:44;99749.41;;;8.91;100.00
35224;BME280;21367;51.930;8.112;2023-04-24T11:34:50;99778.97;;;9.07;100.00
35224;BME280;21367;51.930;8.112;2023-04-24T11:39:58;99802.59;;;8.98;100.00
35224;BME280;21367;51.930;8.112;2023-04-24T11:45:07;99816.91;;;9.17;100.00
35224;BME280;21367;51.930;8.112;2023-04-24T11:50:12;99832.16;;;9.13;99.91
35224;BME280;21367;51.930;8.112;2023-04-24T11:55:29;99852.44;;;9.32;100.00
35224;BME280;21367;51.930;8.112;2023-04-24T12:00:33;99866.44;;;9.42;98.01
35224;BME280;21367;51.930;8.112;2023-04-24T12:05:39;99867.91;;;9.61;98.35
35224;BME280;21367;51.930;8.112;2023-04-24T12:10:51;99869.28;;;9.77;99.34
35224;BME280;21367;51.930;8.112;2023-04-24T12:15:54;99877.16;;;9.83;98.79
35224;BME280;21367;51.930;8.112;2023-04-24T12:21:15;99886.00;;;9.38;100.00
35224;BME280;21367;51.930;8.112;2023-04-24T12:26:21;99899.66;;;9.13;100.00
35224;BME280;21367;51.930;8.112;2023-04-24T12:31:27;99894.09;;;8.77;100.00
35224;BME280;21367;51.930;8.112;2023-04-24T12:36:35;99918.53;;;8.67;100.00
35224;BME280;21367;51.930;8.112;2023-04-24T12:41:50;99932.50;;;9.23;100.00
35224;BME280;21367;51.930;8.112;2023-04-24T12:46:54;99931.81;;;9.53;100.00
35224;BME280;21367;51.930;8.112;2023-04-24T12:51:58;99948.03;;;9.28;100.00
35224;BME280;21367;51.930;8.112;2023-04-24T12:57:04;99946.25;;;9.77;100.00
35224;BME280;21367;51.930;8.112;2023-04-24T13:02:08;99957.59;;;9.58;100.00
35224;BME280;21367;51.930;8.112;2023-04-24T13:07:12;99960.41;;;9.91;100.00
35224;BME280;21367;51.930;8.112;2023-04-24T13:12:19;99970.06;;;9.98;100.00
35224;BME280;21367;51.930;8.112;2023-04-24T13:17:24;99971.69;;;9.96;100.00
35224;BME280;21367;51.930;8.112;2023-04-24T13:22:28;99973.72;;;9.54;100.00
35224;BME280;21367;51.930;8.112;2023-04-24T13:27:38;99976.13;;;9.75;100.00
35224;BME280;21367;51.930;8.112;2023-04-24T13:32:43;99973.59;;;9.50;100.00
35224;BME280;21367;51.930;8.112;2023-04-24T13:37:54;99979.34;;;9.43;100.00
35224;BME280;21367;51.930;8.112;2023-04-24T13:43:02;99982.25;;;9.29;100.00
35224;BME280;21367;51.930;8.112;2023-04-24T13:48:06;99984.09;;;9.33;100.00
35224;BME280;21367;51.930;8.112;2023-04-24T13:53:10;99984.41;;;9.42;100.00
35224;BME280;21367;51.930;8.112;2023-04-24T13:58:18;99982.28;;;9.54;100.00
35224;BME280;21367;51.930;8.112;2023-04-24T14:03:21;99991.31;;;9.19;100.00
35224;BME280;21367;51.930;8.112;2023-04-24T14:08:25;99994.41;;;9.34;100.00
35224;BME280;21367;51.930;8.112;2023-04-24T14:13:32;99994.84;;;9.98;99.35
35224;BME280;21367;51.930;8.112;2023-04-24T14:18:37;99989.44;;;10.41;94.40
35224;BME280;21367;51.930;8.112;2023-04-24T14:23:41;100001.41;;;9.89;95.86
35224;BME280;21367;51.930;8.112;2023-04-24T14:28:48;100008.50;;;9.71;93.94
35224;BME280;21367;51.930;8.112;2023-04-24T14:33:53;100026.22;;;9.39;93.78
35224;BME280;21367;51.930;8.112;2023-04-24T14:38:58;100011.84;;;9.68;91.56
35224;BME280;21367;51.930;8.112;2023-04-24T14:44:07;100022.78;;;10.14;90.22
35224;BME280;21367;51.930;8.112;2023-04-24T14:49:11;100022.09;;;10.19;88.37
35224;BME280;21367;51.930;8.112;2023-04-24T14:54:15;100040.72;;;10.12;89.26
35224;BME280;21367;51.930;8.112;2023-04-24T14:59:21;100042.91;;;9.76;86.91
35224;BME280;21367;51.930;8.112;2023-04-24T15:04:24;100043.16;;;10.09;88.17
35224;BME280;21367;51.930;8.112;2023-04-24T15:09:29;100054.22;;;10.59;86.32
35224;BME280;21367;51.930;8.112;2023-04-24T15:14:36;100048.53;;;10.42;85.91
35224;BME280;21367;51.930;8.112;2023-04-24T15:19:40;100050.94;;;10.63;85.45
35224;BME280;21367;51.930;8.112;2023-04-24T15:24:43;100056.81;;;10.34;86.77
35224;BME280;21367;51.930;8.112;2023-04-24T15:29:50;100058.16;;;9.71;88.01
35224;BME280;21367;51.930;8.112;2023-04-24T15:34:54;100060.19;;;9.34;88.36
35224;BME280;21367;51.930;8.112;2023-04-24T15:39:58;100061.63;;;9.99;88.89
35224;BME280;21367;51.930;8.112;2023-04-24T15:45:09;100069.59;;;9.57;88.48
35224;BME280;21367;51.930;8.112;2023-04-24T15:50:13;100067.59;;;10.49;84.52
35224;BME280;21367;51.930;8.112;2023-04-24T15:55:17;100062.00;;;10.89;82.32
35224;BME280;21367;51.930;8.112;2023-04-24T16:00:24;100070.09;;;10.75;81.03
35224;BME280;21367;51.930;8.112;2023-04-24T16:05:33;100084.69;;;10.47;83.04
35224;BME280;21367;51.930;8.112;2023-04-24T16:10:37;100085.19;;;10.64;80.40
35224;BME280;21367;51.930;8.112;2023-04-24T16:15:44;100085.78;;;10.55;81.46
35224;BME280;21367;51.930;8.112;2023-04-24T16:20:48;100098.72;;;10.31;82.68
35224;BME280;21367;51.930;8.112;2023-04-24T16:25:52;100102.06;;;10.29;80.93
35224;BME280;21367;51.930;8.112;2023-04-24T16:30:59;100112.53;;;10.11;82.03
35224;BME280;21367;51.930;8.112;2023-04-24T16:36:03;100117.66;;;10.11;85.92
35224;BME280;21367;51.930;8.112;2023-04-24T16:41:08;100117.56;;;10.32;81.04
35224;BME280;21367;51.930;8.112;2023-04-24T16:46:15;100111.31;;;11.33;76.07
35224;BME280;21367;51.930;8.112;2023-04-24T16:51:19;100102.53;;;13.70;70.79
35224;BME280;21367;51.930;8.112;2023-04-24T16:56:23;100117.91;;;14.08;66.07
35224;BME280;21367;51.930;8.112;2023-04-24T17:01:30;100112.13;;;13.76;64.41
35224;BME280;21367;51.930;8.112;2023-04-24T17:06:35;100116.19;;;13.64;65.61
35224;BME280;21367;51.930;8.112;2023-04-24T17:11:43;100129.19;;;12.90;67.70
35224;BME280;21367;51.930;8.112;2023-04-24T17:16:50;100134.47;;;11.94;70.22
35224;BME280;21367;51.930;8.112;2023-04-24T17:21:54;100128.34;;;11.30;72.17
35224;BME280;21367;51.930;8.112;2023-04-24T17:26:59;100130.22;;;10.78;73.52
35224;BME280;21367;51.930;8.112;2023-04-24T17:32:06;100133.19;;;10.65;74.86
35224;BME280;21367;51.930;8.112;2023-04-24T17:37:11;100130.31;;;10.56;75.42
35224;BME280;21367;51.930;8.112;2023-04-24T17:42:15;100128.34;;;10.23;76.13
35224;BME280;21367;51.930;8.112;2023-04-24T17:47:23;100129.16;;;10.46;76.34
35224;BME280;21367;51.930;8.112;2023-04-24T17:52:29;100136.41;;;10.32;77.42
35224;BME280;21367;51.930;8.112;2023-04-24T17:57:34;100142.16;;;10.01;80.19
35224;BME280;21367;51.930;8.112;2023-04-24T18:02:41;100141.00;;;9.69;84.48
35224;BME280;21367;51.930;8.112;2023-04-24T18:07:45;100145.84;;;9.37;86.56
35224;BME280;21367;51.930;8.112;2023-04-24T18:12:50;100149.50;;;9.21;87.50
35224;BME280;21367;51.930;8.112;2023-04-24T18:18:09;100154.59;;;8.99;88.76
35224;BME280;21367;51.930;8.112;2023-04-24T18:23:33;100149.69;;;8.83;91.04
35224;BME280;21367;51.930;8.112;2023-04-24T18:28:37;100158.22;;;9.04;90.14
35224;BME280;21367;51.930;8.112;2023-04-24T18:33:46;100155.00;;;8.66;92.27
35224;BME280;21367;51.930;8.112;2023-04-24T18:38:50;100163.13;;;8.77;93.32
35224;BME280;21367;51.930;8.112;2023-04-24T18:43:55;100161.94;;;8.69;93.14
35224;BME280;21367;51.930;8.112;2023-04-24T18:49:05;100165.19;;;8.86;92.30
35224;BME280;21367;51.930;8.112;2023-04-24T18:59:28;100181.00;;;8.75;93.22
35224;BME280;21367;51.930;8.112;2023-04-24T19:04:37;100190.63;;;8.81;93.60
35224;BME280;21367;51.930;8.112;2023-04-24T19:09:41;100194.53;;;8.52;93.25
35224;BME280;21367;51.930;8.112;2023-04-24T19:14:45;100204.91;;;8.35;93.79
35224;BME280;21367;51.930;8.112;2023-04-24T19:19:56;100208.75;;;8.26;95.39
35224;BME280;21367;51.930;8.112;2023-04-24T19:25:05;100205.53;;;8.49;93.02
35224;BME280;21367;51.930;8.112;2023-04-24T19:30:15;100216.91;;;8.56;92.71
35224;BME280;21367;51.930;8.112;2023-04-24T19:35:23;100218.78;;;8.02;94.43
35224;BME280;21367;51.930;8.112;2023-04-24T19:40:27;100224.81;;;8.41;92.42
35224;BME280;21367;51.930;8.112;2023-04-24T19:45:31;100219.84;;;8.05;92.17
35224;BME280;21367;51.930;8.112;2023-04-24T19:50:37;100230.53;;;7.97;95.21
35224;BME280;21367;51.930;8.112;2023-04-24T19:55:41;100228.84;;;7.97;93.21
35224;BME280;21367;51.930;8.112;2023-04-24T20:00:45;100232.56;;;7.67;94.08
35224;BME280;21367;51.930;8.112;2023-04-24T20:05:52;100227.91;;;7.58;93.43
35224;BME280;21367;51.930;8.112;2023-04-24T20:10:56;100228.53;;;7.52;93.94
35224;BME280;21367;51.930;8.112;2023-04-24T20:16:00;100230.28;;;7.35;94.79
35224;BME280;21367;51.930;8.112;2023-04-24T20:21:07;100240.06;;;7.44;94.72
35224;BME280;21367;51.930;8.112;2023-04-24T20:26:11;100234.13;;;6.91;95.08
35224;BME280;21367;51.930;8.112;2023-04-24T20:31:15;100232.75;;;6.98;97.66
35224;BME280;21367;51.930;8.112;2023-04-24T20:36:22;100233.63;;;6.99;96.63
35224;BME280;21367;51.930;8.112;2023-04-24T20:41:27;100230.91;;;6.95;96.67
35224;BME280;21367;51.930;8.112;2023-04-24T20:46:31;100232.28;;;6.89;96.79
35224;BME280;21367;51.930;8.112;2023-04-24T20:51:38;100242.09;;;6.63;97.80
35224;BME280;21367;51.930;8.112;2023-04-24T20:56:42;100243.97;;;6.84;96.77
35224;BME280;21367;51.930;8.112;2023-04-24T21:01:46;100240.16;;;6.76;96.52
35224;BME280;21367;51.930;8.112;2023-04-24T21:06:53;100245.25;;;6.76;96.54
35224;BME280;21367;51.930;8.112;2023-04-24T21:11:56;100247.50;;;6.69;96.83
35224;BME280;21367;51.930;8.112;2023-04-24T21:17:02;100249.00;;;6.82;95.17
35224;BME280;21367;51.930;8.112;2023-04-24T21:22:08;100243.94;;;6.66;96.20
35224;BME280;21367;51.930;8.112;2023-04-24T21:27:14;100239.53;;;6.63;96.23
35224;BME280;21367;51.930;8.112;2023-04-24T21:32:19;100247.31;;;6.48;98.87
35224;BME280;21367;51.930;8.112;2023-04-24T21:37:26;100241.66;;;6.38;99.60
35224;BME280;21367;51.930;8.112;2023-04-24T21:42:30;100248.41;;;6.54;98.67
35224;BME280;21367;51.930;8.112;2023-04-24T21:47:34;100237.00;;;6.63;96.30
35224;BME280;21367;51.930;8.112;2023-04-24T21:52:40;100241.31;;;6.64;95.67
35224;BME280;21367;51.930;8.112;2023-04-24T21:57:45;100245.81;;;6.36;95.90
35224;BME280;21367;51.930;8.112;2023-04-24T22:02:48;100234.81;;;6.20;97.22
35224;BME280;21367;51.930;8.112;2023-04-24T22:07:57;100235.88;;;6.24;96.70
35224;BME280;21367;51.930;8.112;2023-04-24T22:13:02;100238.47;;;6.42;96.61
35224;BME280;21367;51.930;8.112;2023-04-24T22:18:05;100237.13;;;5.99;96.97
35224;BME280;21367;51.930;8.112;2023-04-24T22:23:14;100232.50;;;6.25;97.92
35224;BME280;21367;51.930;8.112;2023-04-24T22:28:18;100233.50;;;6.45;95.67
35224;BME280;21367;51.930;8.112;2023-04-24T22:33:22;100226.13;;;6.17;96.40
35224;BME280;21367;51.930;8.112;2023-04-24T22:38:28;100227.41;;;6.25;97.04
35224;BME280;21367;51.930;8.112;2023-04-24T22:43:32;100217.41;;;6.46;95.30
35224;BME280;21367;51.930;8.112;2023-04-24T22:48:36;100225.38;;;6.36;95.12
35224;BME280;21367;51.930;8.112;2023-04-24T22:53:43;100221.50;;;6.26;95.32
35224;BME280;21367;51.930;8.112;2023-04-24T22:58:49;100227.63;;;6.46;95.12
35224;BME280;21367;51.930;8.112;2023-04-24T23:03:53;100227.22;;;6.38;94.50
35224;BME280;21367;51.930;8.112;2023-04-24T23:08:59;100221.38;;;6.57;93.79
35224;BME280;21367;51.930;8.112;2023-04-24T23:14:03;100229.91;;;6.58;95.08
35224;BME280;21367;51.930;8.112;2023-04-24T23:19:08;100227.16;;;6.37;94.32
35224;BME280;21367;51.930;8.112;2023-04-24T23:24:15;100227.47;;;6.43;95.08
35224;BME280;21367;51.930;8.112;2023-04-24T23:29:18;100227.94;;;6.36;95.16
35224;BME280;21367;51.930;8.112;2023-04-24T23:34:22;100232.81;;;6.31;95.57
35224;BME280;21367;51.930;8.112;2023-04-24T23:39:29;100221.00;;;6.49;95.40
35224;BME280;21367;51.930;8.112;2023-04-24T23:44:32;100212.72;;;6.71;93.53
35224;BME280;21367;51.930;8.112;2023-04-24T23:49:36;100218.03;;;6.58;94.78
35224;BME280;21367;51.930;8.112;2023-04-24T23:54:43;100215.47;;;6.58;94.98
35224;BME280;21367;51.930;8.112;2023-04-24T23:59:46;100212.78;;;6.73;94.71
